Time;durP1;ratioP1;P1;durP2;ratioP2;P2;SDS_P1;SDS_P2;PMS_P1;PMS_P2;Temp;Humidity;BMP_temperature;BMP_pressure;BME280_temperature;BME280_humidity;BME280_pressure;Samples;Min_cycle;Max_cycle;Signal;HPM_P1;HPM_P2
2021/05/12 00:00:22;;;;;;;2.13;1.07;;;24.40;99.90;;;;;;5054505;28;20287;-89
2021/05/12 00:02:55;;;;;;;2.83;1.00;;;24.50;99.90;;;;;;5057769;28;20200;-89
2021/05/12 00:05:27;;;;;;;2.10;0.90;;;24.20;99.90;;;;;;5041204;28;20244;-88
2021/05/12 00:07:57;;;;;;;1.90;1.20;;;24.30;99.90;;;;;;5036604;28;20212;-89
2021/05/12 00:10:28;;;;;;;1.50;1.13;;;24.20;99.90;;;;;;5034241;28;20272;-88
2021/05/12 00:12:59;;;;;;;4.87;1.17;;;24.10;99.90;;;;;;5037773;28;20209;-89
2021/05/12 00:15:29;;;;;;;3.00;1.20;;;24.00;99.90;;;;;;5035005;28;20569;-89
2021/05/12 00:18:09;;;;;;;1.10;0.70;;;24.00;99.90;;;;;;5035360;28;20316;-89
2021/05/12 00:20:41;;;;;;;15.47;1.67;;;23.80;99.90;;;;;;5034035;28;20292;-90
2021/05/12 00:23:16;;;;;;;3.40;1.00;;;23.30;99.90;;;;;;5036131;28;20213;-90
2021/05/12 00:25:46;;;;;;;3.73;1.10;;;23.20;99.90;;;;;;5034946;28;20223;-89
2021/05/12 00:28:16;;;;;;;2.40;0.90;;;23.40;99.90;;;;;;5035635;28;20236;-89
2021/05/12 00:30:48;;;;;;;1.93;0.90;;;23.40;99.90;;;;;;5034672;28;20217;-89
2021/05/12 00:33:20;;;;;;;2.20;0.90;;;23.20;99.90;;;;;;5035419;28;20262;-89
2021/05/12 00:35:54;;;;;;;3.60;1.03;;;22.60;99.90;;;;;;5017127;28;20319;-89
2021/05/12 00:38:25;;;;;;;3.40;0.80;;;22.50;99.90;;;;;;5034787;28;20217;-90
2021/05/12 00:40:55;;;;;;;1.43;0.90;;;22.80;99.90;;;;;;5033971;28;20251;-90
2021/05/12 00:43:26;;;;;;;1.53;1.00;;;22.90;99.90;;;;;;5035174;28;20240;-89
2021/05/12 00:45:57;;;;;;;1.80;1.10;;;23.10;99.90;;;;;;5034323;28;20318;-89
2021/05/12 00:48:29;;;;;;;2.40;1.07;;;23.00;99.90;;;;;;5052665;28;20223;-90
2021/05/12 00:51:00;;;;;;;3.93;1.00;;;22.90;99.90;;;;;;5054562;28;20220;-90
2021/05/12 00:53:31;;;;;;;2.37;0.77;;;22.90;99.90;;;;;;5055543;28;20212;-89
2021/05/12 00:58:42;;;;;;;1.90;1.23;;;22.50;99.90;;;;;;5699027;22;20255;-89
2021/05/12 01:01:29;;;;;;;2.70;1.10;;;22.20;99.90;;;;;;5042970;28;20233;-90
2021/05/12 01:04:02;;;;;;;5.23;3.27;;;22.00;99.90;;;;;;5038735;28;20233;-88
2021/05/12 01:06:35;;;;;;;6.00;3.43;;;22.70;99.90;;;;;;5017885;28;20620;-90
2021/05/12 01:09:07;;;;;;;4.07;1.20;;;23.30;99.90;;;;;;5038480;28;20205;-90
2021/05/12 01:11:40;;;;;;;2.70;1.00;;;24.00;99.90;;;;;;5035198;28;20244;-88
2021/05/12 01:14:11;;;;;;;1.57;1.00;;;24.00;99.90;;;;;;5018901;28;20226;-89
2021/05/12 01:16:43;;;;;;;1.30;0.90;;;24.20;99.90;;;;;;5036012;28;20208;-89
2021/05/12 01:19:15;;;;;;;1.47;1.00;;;24.60;99.90;;;;;;5036608;28;20240;-89
2021/05/12 01:21:48;;;;;;;3.57;1.10;;;25.00;99.90;;;;;;5016477;28;20312;-90
2021/05/12 01:24:19;;;;;;;1.77;1.00;;;24.70;99.60;;;;;;5036392;28;20204;-90
2021/05/12 01:26:49;;;;;;;2.47;0.93;;;24.90;99.20;;;;;;5033630;28;20262;-89
2021/05/12 01:29:22;;;;;;;4.50;1.00;;;24.40;99.90;;;;;;5034113;28;20208;-90
2021/05/12 01:31:55;;;;;;;1.70;0.80;;;24.00;99.90;;;;;;5015571;28;20674;-90
2021/05/12 01:34:26;;;;;;;2.17;1.10;;;23.80;99.90;;;;;;5033315;28;20236;-89
2021/05/12 01:36:59;;;;;;;2.77;1.17;;;24.30;99.90;;;;;;5034657;28;20212;-90
2021/05/12 01:39:30;;;;;;;1.67;0.97;;;24.30;99.90;;;;;;5033713;28;20205;-90
2021/05/12 01:42:01;;;;;;;1.60;1.00;;;24.80;99.30;;;;;;5032952;28;20205;-90
2021/05/12 01:44:32;;;;;;;2.23;1.10;;;24.90;99.50;;;;;;5032855;28;20252;-90
2021/05/12 01:47:02;;;;;;;2.37;1.00;;;24.70;98.80;;;;;;5033528;28;20646;-89
2021/05/12 01:49:33;;;;;;;1.97;1.10;;;24.50;99.50;;;;;;5032596;28;20236;-90
2021/05/12 01:52:04;;;;;;;3.97;1.10;;;24.50;99.50;;;;;;5032907;28;20658;-89
2021/05/12 01:54:35;;;;;;;2.37;1.10;;;24.00;99.50;;;;;;5036731;28;20645;-89
2021/05/12 01:57:06;;;;;;;1.63;1.00;;;23.70;99.20;;;;;;5036820;28;21102;-90
2021/05/12 01:59:38;;;;;;;3.67;1.30;;;23.30;99.30;;;;;;5038153;28;20240;-90
2021/05/12 02:02:08;;;;;;;61.83;6.93;;;22.60;99.90;;;;;;5038004;28;20243;-90
2021/05/12 02:04:40;;;;;;;4.67;1.57;;;21.90;99.90;;;;;;5038027;28;20225;-91
2021/05/12 02:07:14;;;;;;;1.97;1.40;;;21.40;99.90;;;;;;5038222;28;20239;-90
2021/05/12 02:09:49;;;;;;;2.27;1.43;;;21.10;99.90;;;;;;5038706;28;20662;-90
2021/05/12 02:12:20;;;;;;;2.60;1.43;;;20.80;99.90;;;;;;5036779;28;20221;-90
2021/05/12 02:14:52;;;;;;;3.73;1.10;;;20.50;99.90;;;;;;5038627;28;20247;-89
2021/05/12 02:17:23;;;;;;;1.47;0.83;;;20.20;99.90;;;;;;5038158;28;20228;-91
2021/05/12 02:19:54;;;;;;;2.53;1.13;;;20.00;99.90;;;;;;5038006;28;20300;-91
2021/05/12 02:22:27;;;;;;;1.30;0.87;;;20.00;99.90;;;;;;5037319;28;20209;-91
2021/05/12 02:24:57;;;;;;;2.47;1.23;;;19.80;99.90;;;;;;5037658;28;20221;-91
2021/05/12 02:27:29;;;;;;;1.83;0.90;;;19.60;99.90;;;;;;5043245;28;20262;-91
2021/05/12 02:30:04;;;;;;;3.00;1.00;;;19.40;99.90;;;;;;5040050;28;20205;-92
2021/05/12 02:32:35;;;;;;;1.70;0.90;;;19.10;99.90;;;;;;5040214;28;20224;-92
2021/05/12 02:35:09;;;;;;;2.77;1.10;;;18.90;99.90;;;;;;5040090;28;20216;-91
2021/05/12 02:37:41;;;;;;;3.70;1.50;;;18.90;99.90;;;;;;5042149;28;20342;-91
2021/05/12 02:40:15;;;;;;;2.67;1.07;;;18.60;99.90;;;;;;5039015;28;20259;-92
2021/05/12 02:42:49;;;;;;;5.57;1.23;;;18.60;99.90;;;;;;5019766;28;20244;-92
2021/05/12 02:45:21;;;;;;;3.20;1.00;;;18.40;99.90;;;;;;5020225;28;20320;-92
2021/05/12 02:48:02;;;;;;;3.83;0.90;;;18.40;99.90;;;;;;5021291;28;20685;-91
2021/05/12 02:50:35;;;;;;;2.20;1.30;;;18.30;99.90;;;;;;5040053;28;20541;-91
2021/05/12 02:53:10;;;;;;;2.10;0.90;;;18.10;99.90;;;;;;5039864;28;20275;-90
2021/05/12 02:55:41;;;;;;;2.63;1.37;;;17.90;99.90;;;;;;5039771;28;20240;-91
2021/05/12 02:58:13;;;;;;;1.97;1.30;;;17.90;99.90;;;;;;5038736;28;20240;-91
2021/05/12 03:01:02;;;;;;;1.80;1.10;;;17.80;99.90;;;;;;5023167;28;20216;-89
2021/05/12 03:03:38;;;;;;;1.60;0.97;;;17.70;99.90;;;;;;5041569;28;20293;-90
2021/05/12 03:06:11;;;;;;;2.97;1.40;;;17.70;99.90;;;;;;5039599;28;20590;-90
2021/05/12 03:08:46;;;;;;;3.53;1.37;;;17.60;99.90;;;;;;5040881;28;20220;-90
2021/05/12 03:11:17;;;;;;;2.10;1.00;;;17.40;99.90;;;;;;5039799;28;20258;-91
2021/05/12 03:13:48;;;;;;;2.80;0.90;;;17.30;99.90;;;;;;5046011;28;20232;-90
2021/05/12 03:16:23;;;;;;;2.07;1.10;;;17.20;99.90;;;;;;5056611;28;20209;-91
2021/05/12 03:18:55;;;;;;;1.33;1.10;;;17.20;99.90;;;;;;5039479;28;20223;-91
2021/05/12 03:21:27;;;;;;;2.70;1.17;;;17.10;99.90;;;;;;5049165;28;20271;-90
2021/05/12 03:23:59;;;;;;;2.43;1.17;;;17.00;99.90;;;;;;5022874;28;20713;-91
2021/05/12 03:26:30;;;;;;;2.40;1.27;;;16.90;99.90;;;;;;5038451;28;20693;-91
2021/05/12 03:29:02;;;;;;;2.90;1.37;;;16.70;99.90;;;;;;5038879;28;20244;-92
2021/05/12 03:31:33;;;;;;;1.53;1.07;;;16.60;99.90;;;;;;5036563;28;20205;-90
2021/05/12 03:34:05;;;;;;;1.50;1.17;;;16.50;99.90;;;;;;5039024;28;20216;-90
2021/05/12 03:36:35;;;;;;;2.20;1.10;;;16.40;99.90;;;;;;5039467;28;20228;-91
2021/05/12 03:39:08;;;;;;;4.43;1.50;;;16.20;99.90;;;;;;5037338;28;20537;-90
2021/05/12 03:41:39;;;;;;;3.10;1.17;;;16.20;99.90;;;;;;5035921;28;20677;-91
2021/05/12 03:44:11;;;;;;;3.33;1.30;;;16.10;99.90;;;;;;5037134;28;20213;-90
2021/05/12 03:46:42;;;;;;;3.40;1.30;;;15.90;99.90;;;;;;5036993;28;20265;-90
2021/05/12 03:49:12;;;;;;;2.27;1.20;;;15.90;99.90;;;;;;5037940;28;20205;-90
2021/05/12 03:51:43;;;;;;;2.23;1.50;;;15.80;99.90;;;;;;5037378;28;20295;-90
2021/05/12 03:54:14;;;;;;;2.77;1.60;;;15.80;99.90;;;;;;5046213;28;20272;-90
2021/05/12 03:56:46;;;;;;;2.13;1.50;;;15.80;99.90;;;;;;5041763;28;20649;-90
2021/05/12 03:59:16;;;;;;;1.33;1.20;;;15.70;99.90;;;;;;5020489;28;20248;-90
2021/05/12 04:01:47;;;;;;;3.27;1.23;;;15.50;99.90;;;;;;5019767;28;20236;-91
2021/05/12 04:04:18;;;;;;;4.47;1.43;;;15.40;99.90;;;;;;5022621;28;20256;-89
2021/05/12 04:06:49;;;;;;;2.23;1.10;;;15.40;99.90;;;;;;5044990;28;20240;-91
2021/05/12 04:09:22;;;;;;;4.43;1.50;;;15.30;99.90;;;;;;5056028;28;20221;-90
2021/05/12 04:11:52;;;;;;;3.30;1.60;;;15.30;99.90;;;;;;5038820;28;20215;-90
2021/05/12 04:14:23;;;;;;;6.20;2.10;;;15.20;99.90;;;;;;5043948;28;20216;-89
2021/05/12 04:16:53;;;;;;;4.73;1.93;;;15.20;99.90;;;;;;5043867;28;20646;-89
2021/05/12 04:19:24;;;;;;;3.20;1.60;;;15.10;99.90;;;;;;5044480;28;20624;-91
2021/05/12 04:21:55;;;;;;;4.30;1.70;;;15.00;99.90;;;;;;5036335;28;20268;-91
2021/05/12 04:24:27;;;;;;;3.27;1.50;;;15.00;99.90;;;;;;5038267;28;20668;-91
2021/05/12 04:26:58;;;;;;;4.40;1.57;;;14.90;99.90;;;;;;5035821;28;20233;-91
2021/05/12 04:29:28;;;;;;;3.50;1.53;;;14.90;99.90;;;;;;5035850;28;20216;-90
2021/05/12 04:31:59;;;;;;;3.97;1.50;;;14.80;99.90;;;;;;5035131;28;20247;-91
2021/05/12 04:34:30;;;;;;;3.53;1.60;;;14.80;99.90;;;;;;5035982;28;20658;-90
2021/05/12 04:37:01;;;;;;;3.53;1.73;;;14.80;99.90;;;;;;5035739;28;20236;-90
2021/05/12 04:39:33;;;;;;;4.37;1.60;;;14.90;99.90;;;;;;5036712;28;20217;-90
2021/05/12 04:42:04;;;;;;;4.00;1.37;;;14.80;99.90;;;;;;5040086;28;20308;-90
2021/05/12 04:44:35;;;;;;;3.57;1.70;;;14.80;99.90;;;;;;5056779;28;20628;-91
2021/05/12 04:47:06;;;;;;;2.23;1.30;;;14.70;99.90;;;;;;5054954;28;20772;-90
2021/05/12 04:49:36;;;;;;;3.73;1.60;;;14.70;99.90;;;;;;5055622;28;20285;-90
2021/05/12 04:52:07;;;;;;;5.60;1.87;;;14.70;99.90;;;;;;5054393;28;20239;-90
2021/05/12 04:54:39;;;;;;;2.73;1.70;;;14.70;99.90;;;;;;5040623;28;20248;-90
2021/05/12 04:57:10;;;;;;;4.03;1.50;;;14.70;99.90;;;;;;5034842;28;20255;-89
2021/05/12 04:59:41;;;;;;;3.57;1.37;;;14.60;99.90;;;;;;5034809;28;20240;-90
2021/05/12 05:02:13;;;;;;;7.33;1.50;;;14.60;99.90;;;;;;5033546;28;20242;-90
2021/05/12 05:04:44;;;;;;;3.27;1.57;;;14.60;99.90;;;;;;5017380;28;20209;-90
2021/05/12 05:07:14;;;;;;;1.87;1.27;;;14.50;99.90;;;;;;5034705;28;20648;-90
2021/05/12 05:09:46;;;;;;;4.30;1.43;;;14.60;99.90;;;;;;5034898;28;20240;-90
2021/05/12 05:12:17;;;;;;;2.77;1.30;;;14.60;99.90;;;;;;5033949;28;20655;-90
2021/05/12 05:14:47;;;;;;;1.93;1.20;;;14.70;99.90;;;;;;5034241;28;20266;-89
2021/05/12 05:17:17;;;;;;;1.67;1.20;;;14.70;99.90;;;;;;5034512;28;20589;-90
2021/05/12 05:19:49;;;;;;;1.93;1.10;;;14.70;99.90;;;;;;5034879;28;20216;-90
2021/05/12 05:22:20;;;;;;;2.30;1.17;;;14.70;99.90;;;;;;5034130;28;20227;-90
2021/05/12 05:24:53;;;;;;;3.53;1.50;;;14.70;99.90;;;;;;5034615;28;20328;-90
2021/05/12 05:27:25;;;;;;;2.40;1.30;;;14.80;99.90;;;;;;5034141;28;20240;-90
2021/05/12 05:29:56;;;;;;;3.10;1.00;;;14.70;99.90;;;;;;5034342;28;20585;-90
2021/05/12 05:32:27;;;;;;;1.60;1.30;;;14.60;99.90;;;;;;5038580;28;20649;-90
2021/05/12 05:34:58;;;;;;;2.40;1.20;;;14.60;99.90;;;;;;5039024;28;20244;-90
2021/05/12 05:37:29;;;;;;;2.63;0.90;;;14.60;99.90;;;;;;5039595;28;20296;-90
2021/05/12 05:40:01;;;;;;;4.90;1.10;;;14.50;99.90;;;;;;5055048;28;20243;-91
2021/05/12 05:42:32;;;;;;;2.73;1.07;;;14.40;99.90;;;;;;5057472;28;20205;-91
2021/05/12 05:45:03;;;;;;;3.40;1.40;;;14.40;99.90;;;;;;5045115;28;20209;-90
2021/05/12 05:47:33;;;;;;;2.67;1.37;;;14.30;99.90;;;;;;5038828;28;20300;-90
2021/05/12 05:50:04;;;;;;;3.20;1.40;;;14.30;99.90;;;;;;5037060;28;20208;-91
2021/05/12 05:52:35;;;;;;;6.03;1.43;;;14.30;99.90;;;;;;5038784;28;20212;-91
2021/05/12 05:55:07;;;;;;;2.23;1.37;;;14.40;99.90;;;;;;5038507;28;20304;-90
2021/05/12 05:57:38;;;;;;;2.53;1.20;;;14.30;99.90;;;;;;5038128;28;20713;-90
2021/05/12 06:00:10;;;;;;;1.73;1.03;;;14.20;99.90;;;;;;5036643;28;20217;-90
2021/05/12 06:02:46;;;;;;;2.53;0.80;;;14.10;99.90;;;;;;5038311;28;20684;-90
2021/05/12 06:05:16;;;;;;;1.70;0.83;;;14.10;99.90;;;;;;5022019;28;20307;-89
2021/05/12 06:07:47;;;;;;;2.60;1.20;;;14.10;99.90;;;;;;5038491;28;20236;-90
2021/05/12 06:10:19;;;;;;;2.30;1.20;;;14.00;99.90;;;;;;5037002;28;20295;-90
2021/05/12 06:12:50;;;;;;;2.97;1.07;;;14.00;99.90;;;;;;5038270;28;20240;-92
2021/05/12 06:15:21;;;;;;;2.83;0.97;;;14.10;99.90;;;;;;5040134;28;20208;-90
2021/05/12 06:17:54;;;;;;;3.13;0.73;;;14.10;99.90;;;;;;5037768;28;20217;-89
2021/05/12 06:20:25;;;;;;;2.57;1.10;;;14.00;99.90;;;;;;5038244;28;20205;-90
2021/05/12 06:23:02;;;;;;;1.50;0.90;;;13.90;99.90;;;;;;5038944;28;20219;-90
2021/05/12 06:25:46;;;;;;;1.63;0.90;;;13.80;99.90;;;;;;5037416;28;20213;-90
2021/05/12 06:28:18;;;;;;;3.70;1.07;;;13.80;99.90;;;;;;5038155;28;20312;-91
2021/05/12 06:30:50;;;;;;;3.87;1.10;;;13.70;99.90;;;;;;5037017;28;20213;-90
2021/05/12 06:33:22;;;;;;;2.90;1.00;;;13.60;99.90;;;;;;5038065;28;20209;-91
2021/05/12 06:35:53;;;;;;;1.37;0.90;;;13.60;99.90;;;;;;5037256;28;20313;-90
2021/05/12 06:38:24;;;;;;;5.30;1.10;;;13.60;99.90;;;;;;5037128;28;20236;-90
2021/05/12 06:40:56;;;;;;;2.20;1.13;;;13.50;99.90;;;;;;5036438;28;20204;-91
2021/05/12 06:43:27;;;;;;;2.27;1.30;;;13.40;99.90;;;;;;5036684;28;20565;-91
2021/05/12 06:45:58;;;;;;;2.67;1.27;;;13.30;99.90;;;;;;5037374;28;20295;-90
2021/05/12 06:48:30;;;;;;;6.50;1.53;;;13.30;99.90;;;;;;5037258;28;20219;-90
2021/05/12 06:51:01;;;;;;;2.43;1.10;;;13.30;99.90;;;;;;5035998;28;20258;-90
2021/05/12 06:53:34;;;;;;;2.63;0.97;;;13.30;99.90;;;;;;5036531;28;20266;-90
2021/05/12 06:56:07;;;;;;;2.47;1.00;;;13.30;99.90;;;;;;5036769;28;20270;-89
2021/05/12 06:58:41;;;;;;;4.63;1.57;;;13.20;99.90;;;;;;5036564;28;20209;-90
2021/05/12 07:01:13;;;;;;;3.30;0.97;;;13.20;99.90;;;;;;5015719;28;20206;-90
2021/05/12 07:03:44;;;;;;;3.43;1.20;;;13.10;99.90;;;;;;5017011;28;20206;-90
2021/05/12 07:06:14;;;;;;;4.87;1.10;;;13.10;99.90;;;;;;5016906;28;20316;-90
2021/05/12 07:08:49;;;;;;;3.07;1.00;;;13.00;99.90;;;;;;5016659;28;20210;-89
2021/05/12 07:11:23;;;;;;;1.97;0.93;;;13.00;99.90;;;;;;5015571;28;20268;-89
2021/05/12 07:13:53;;;;;;;3.97;1.30;;;13.00;99.90;;;;;;5016838;28;20264;-90
2021/05/12 07:16:24;;;;;;;2.33;1.10;;;13.00;99.90;;;;;;5016492;28;20244;-89
2021/05/12 07:18:55;;;;;;;3.20;1.00;;;12.90;99.90;;;;;;5016585;28;20209;-89
2021/05/12 07:21:26;;;;;;;3.43;1.20;;;12.90;99.90;;;;;;5015621;28;20210;-89
2021/05/12 07:23:57;;;;;;;3.57;1.40;;;12.90;99.90;;;;;;5016210;28;20212;-89
2021/05/12 07:26:30;;;;;;;2.87;1.33;;;12.80;99.90;;;;;;5016342;28;20291;-90
2021/05/12 07:29:02;;;;;;;1.97;0.93;;;12.80;99.90;;;;;;5016487;28;20292;-90
2021/05/12 07:31:33;;;;;;;5.73;1.30;;;12.70;99.90;;;;;;5015404;28;20217;-90
2021/05/12 07:34:09;;;;;;;4.80;1.20;;;12.80;99.90;;;;;;5016505;28;20206;-90
2021/05/12 07:36:41;;;;;;;5.93;1.30;;;12.70;99.90;;;;;;5016468;28;20244;-90
2021/05/12 07:39:12;;;;;;;3.17;0.97;;;12.70;99.90;;;;;;5015307;28;20248;-90
2021/05/12 07:41:46;;;;;;;3.33;1.10;;;12.60;99.90;;;;;;5015467;28;20209;-90
2021/05/12 07:44:16;;;;;;;2.77;1.10;;;12.70;99.90;;;;;;5016113;28;20573;-90
2021/05/12 07:46:49;;;;;;;2.87;1.07;;;12.60;99.90;;;;;;5036608;28;20310;-90
2021/05/12 07:49:24;;;;;;;5.10;1.10;;;12.60;99.90;;;;;;5036829;28;20209;-90
2021/05/12 07:51:54;;;;;;;2.40;1.10;;;12.60;99.90;;;;;;5035155;28;20239;-90
2021/05/12 07:54:25;;;;;;;4.17;1.03;;;12.50;99.90;;;;;;5036112;28;20209;-91
2021/05/12 07:56:57;;;;;;;4.70;1.43;;;12.50;99.90;;;;;;5037272;28;20217;-90
2021/05/12 07:59:28;;;;;;;4.67;1.17;;;12.60;99.90;;;;;;5035513;28;20244;-89
2021/05/12 08:02:01;;;;;;;3.33;1.20;;;12.50;99.90;;;;;;5036152;28;20208;-89
2021/05/12 08:04:32;;;;;;;4.33;1.37;;;12.50;99.90;;;;;;5047778;28;20236;-89
2021/05/12 08:07:03;;;;;;;3.53;1.40;;;12.60;99.90;;;;;;5048130;28;20591;-90
2021/05/12 08:09:34;;;;;;;2.20;1.13;;;12.50;99.90;;;;;;5046617;28;20217;-89
2021/05/12 08:12:08;;;;;;;4.03;1.57;;;12.50;99.90;;;;;;5039230;28;20631;-89
2021/05/12 08:14:41;;;;;;;3.60;1.20;;;12.40;99.90;;;;;;5037774;28;20216;-89
2021/05/12 08:17:12;;;;;;;3.33;1.50;;;12.50;99.90;;;;;;5039397;28;20213;-89
2021/05/12 08:19:43;;;;;;;4.23;1.53;;;12.50;99.90;;;;;;5036949;28;20209;-90
2021/05/12 08:22:13;;;;;;;8.33;1.63;;;12.50;99.90;;;;;;5035842;28;20235;-90
2021/05/12 08:24:43;;;;;;;5.23;1.43;;;12.50;99.90;;;;;;5036689;28;20232;-89
2021/05/12 08:27:15;;;;;;;2.97;1.37;;;12.50;99.90;;;;;;5034950;28;20319;-89
2021/05/12 08:29:46;;;;;;;3.73;1.30;;;12.50;99.90;;;;;;5035705;28;20244;-89
2021/05/12 08:32:19;;;;;;;2.90;1.63;;;12.50;99.90;;;;;;5034284;28;20235;-90
2021/05/12 08:34:50;;;;;;;4.57;1.40;;;12.50;99.90;;;;;;5017911;28;20266;-89
2021/05/12 08:37:22;;;;;;;5.07;1.47;;;12.50;99.90;;;;;;5018146;28;20300;-90
2021/05/12 08:39:52;;;;;;;3.80;1.30;;;12.50;99.90;;;;;;5035183;28;20353;-91
2021/05/12 08:42:25;;;;;;;4.17;1.57;;;12.50;99.90;;;;;;5034239;28;20204;-91
2021/05/12 08:44:58;;;;;;;3.90;1.40;;;12.50;99.90;;;;;;5035132;28;20213;-91
2021/05/12 08:47:29;;;;;;;3.07;1.40;;;12.40;99.90;;;;;;5034927;28;20237;-90
2021/05/12 08:50:00;;;;;;;3.60;1.70;;;12.40;99.90;;;;;;5036372;28;20229;-91
2021/05/12 08:52:32;;;;;;;3.47;1.30;;;12.50;99.90;;;;;;5054967;28;20247;-90
2021/05/12 08:55:02;;;;;;;2.13;1.30;;;12.40;99.90;;;;;;5055134;28;20627;-90
2021/05/12 08:57:34;;;;;;;2.30;1.40;;;12.30;99.90;;;;;;5055565;28;20240;-90
2021/05/12 09:00:07;;;;;;;5.63;1.57;;;12.30;99.90;;;;;;5053892;28;20615;-90
2021/05/12 09:02:38;;;;;;;5.87;1.30;;;12.30;99.90;;;;;;5055537;28;20228;-90
2021/05/12 09:05:10;;;;;;;4.17;1.20;;;12.30;99.90;;;;;;5054170;28;20296;-90
2021/05/12 09:07:41;;;;;;;3.00;1.10;;;12.20;99.90;;;;;;5038979;28;20281;-90
2021/05/12 09:10:13;;;;;;;3.60;1.20;;;12.30;99.90;;;;;;5053808;28;20238;-90
2021/05/12 09:12:46;;;;;;;2.33;1.20;;;12.30;99.90;;;;;;5055183;28;20201;-90
2021/05/12 09:15:18;;;;;;;2.80;1.37;;;12.30;99.90;;;;;;5055459;28;20281;-90
2021/05/12 09:17:51;;;;;;;2.27;1.00;;;12.40;99.90;;;;;;5037247;28;20291;-90
2021/05/12 09:20:39;;;;;;;4.03;1.50;;;12.30;99.90;;;;;;5053355;28;20204;-90
2021/05/12 09:23:13;;;;;;;3.07;1.30;;;12.30;99.90;;;;;;5051850;28;20295;-90
2021/05/12 09:25:58;;;;;;;3.20;1.40;;;12.30;99.90;;;;;;5056220;28;20228;-90
2021/05/12 09:28:32;;;;;;;3.53;1.30;;;12.30;99.90;;;;;;5045562;28;20216;-90
2021/05/12 09:31:07;;;;;;;1.47;0.90;;;12.30;99.90;;;;;;5054715;28;20189;-91
2021/05/12 09:33:40;;;;;;;3.90;1.10;;;12.30;99.90;;;;;;5055530;28;20192;-91
2021/05/12 09:36:12;;;;;;;4.87;1.50;;;12.30;99.90;;;;;;5046098;28;20258;-91
2021/05/12 09:38:54;;;;;;;5.93;1.73;;;12.30;99.90;;;;;;5044595;28;20633;-90
2021/05/12 09:41:33;;;;;;;3.47;1.50;;;12.30;99.90;;;;;;5042415;28;20208;-90
2021/05/12 09:44:07;;;;;;;3.17;1.33;;;12.30;99.90;;;;;;4998496;28;20296;-90
2021/05/12 09:46:38;;;;;;;4.07;1.20;;;12.30;99.90;;;;;;5015310;28;20206;-90
2021/05/12 09:49:15;;;;;;;3.87;1.50;;;12.30;99.90;;;;;;5015588;28;20606;-90
2021/05/12 09:51:50;;;;;;;4.53;1.30;;;12.30;99.90;;;;;;5016191;28;20202;-90
2021/05/12 09:54:25;;;;;;;2.10;1.20;;;12.30;99.90;;;;;;5016173;28;20205;-90
2021/05/12 09:56:57;;;;;;;3.50;1.40;;;12.40;99.90;;;;;;5024690;28;20293;-90
2021/05/12 09:59:30;;;;;;;5.40;2.17;;;12.30;99.90;;;;;;5027013;28;20312;-90
2021/05/12 10:02:02;;;;;;;4.50;1.20;;;12.30;99.90;;;;;;5036702;28;20249;-90
2021/05/12 10:04:36;;;;;;;4.53;1.27;;;12.40;99.90;;;;;;5040772;28;20213;-90
2021/05/12 10:07:20;;;;;;;3.70;1.20;;;12.40;99.90;;;;;;5041762;28;20200;-89
2021/05/12 10:09:52;;;;;;;2.53;1.17;;;12.30;99.90;;;;;;5034430;28;20232;-90
2021/05/12 10:12:23;;;;;;;4.57;1.70;;;12.30;99.90;;;;;;5033705;28;20665;-90
2021/05/12 10:14:56;;;;;;;5.23;1.50;;;12.30;99.90;;;;;;5034423;28;20239;-90
2021/05/12 10:17:28;;;;;;;2.73;1.20;;;12.30;99.90;;;;;;5035096;28;20299;-90
2021/05/12 10:19:59;;;;;;;4.10;1.53;;;12.20;99.90;;;;;;5020729;28;20205;-90
2021/05/12 10:22:32;;;;;;;3.00;1.10;;;12.30;99.90;;;;;;5020204;28;20240;-89
2021/05/12 10:25:03;;;;;;;5.77;1.50;;;12.30;99.90;;;;;;5022745;28;20209;-89
2021/05/12 10:27:34;;;;;;;4.23;1.20;;;12.30;99.90;;;;;;5035013;28;20241;-89
2021/05/12 10:30:08;;;;;;;3.40;1.30;;;12.40;99.90;;;;;;5052337;28;20268;-90
2021/05/12 10:32:48;;;;;;;6.30;1.30;;;12.40;99.90;;;;;;5047304;28;20638;-90
2021/05/12 10:35:20;;;;;;;2.57;1.20;;;12.30;99.90;;;;;;5020722;28;20229;-90
2021/05/12 10:37:51;;;;;;;4.90;1.50;;;12.40;99.90;;;;;;5038015;28;20288;-90
2021/05/12 10:40:23;;;;;;;1.97;1.07;;;12.40;99.90;;;;;;5036400;28;20271;-91
2021/05/12 10:43:03;;;;;;;3.23;1.20;;;12.40;99.90;;;;;;5037543;28;20270;-90
2021/05/12 10:46:05;;;;;;;2.80;1.10;;;12.40;99.90;;;;;;5033398;28;20213;-90
2021/05/12 10:48:46;;;;;;;5.73;1.17;;;12.40;99.90;;;;;;5033427;28;20722;-91
2021/05/12 10:51:34;;;;;;;5.00;1.20;;;12.40;99.90;;;;;;5037650;28;20556;-91
2021/05/12 10:54:08;;;;;;;3.33;1.07;;;12.30;99.90;;;;;;5036897;28;20255;-91
2021/05/12 10:56:40;;;;;;;5.10;1.30;;;12.40;99.90;;;;;;5038559;28;20222;-90
2021/05/12 10:59:12;;;;;;;4.03;1.00;;;12.40;99.90;;;;;;5037088;28;20224;-91
2021/05/12 11:01:56;;;;;;;3.73;1.30;;;12.40;99.90;;;;;;5035534;28;20219;-91
2021/05/12 11:04:28;;;;;;;4.20;1.10;;;12.40;99.90;;;;;;5036510;28;20287;-90
2021/05/12 11:07:08;;;;;;;3.40;1.20;;;12.40;99.90;;;;;;5036299;28;20300;-90
2021/05/12 11:09:51;;;;;;;2.73;1.10;;;12.40;99.90;;;;;;5036402;28;20641;-90
2021/05/12 11:12:40;;;;;;;3.27;1.13;;;12.40;99.90;;;;;;5035544;28;20213;-90
2021/05/12 11:15:11;;;;;;;3.57;1.13;;;12.40;99.90;;;;;;5036119;28;20244;-89
2021/05/12 11:17:53;;;;;;;2.60;1.30;;;12.40;99.90;;;;;;5036434;28;20665;-90
2021/05/12 11:20:28;;;;;;;3.90;1.20;;;12.40;99.90;;;;;;5035411;28;20239;-90
2021/05/12 11:22:59;;;;;;;1.90;0.90;;;12.40;99.90;;;;;;5036098;28;20200;-90
2021/05/12 11:25:38;;;;;;;4.43;1.30;;;12.40;99.90;;;;;;5036456;28;20251;-90
2021/05/12 11:34:01;;;;;;;3.47;1.40;;;12.40;99.90;;;;;;5021320;28;20209;-90
2021/05/12 11:36:39;;;;;;;4.70;1.40;;;12.30;99.90;;;;;;5036431;28;20208;-91
2021/05/12 11:39:10;;;;;;;3.43;1.53;;;12.30;99.90;;;;;;5019597;28;20260;-89
2021/05/12 11:41:42;;;;;;;5.63;1.60;;;12.20;99.90;;;;;;5018394;28;20267;-90
2021/05/12 11:44:13;;;;;;;5.00;1.40;;;12.20;99.90;;;;;;5035931;28;20233;-90
2021/05/12 11:46:44;;;;;;;2.50;1.30;;;12.20;99.90;;;;;;5035986;28;20208;-89
2021/05/12 11:49:20;;;;;;;3.40;1.43;;;12.30;99.90;;;;;;5035806;28;20236;-90
2021/05/12 11:51:58;;;;;;;5.10;1.40;;;12.20;99.90;;;;;;5034843;28;20205;-90
2021/05/12 11:54:29;;;;;;;3.03;1.40;;;12.20;99.90;;;;;;5035191;28;20213;-90
2021/05/12 11:57:02;;;;;;;4.23;1.40;;;12.20;99.90;;;;;;5035467;28;20296;-90
2021/05/12 11:59:39;;;;;;;3.23;1.43;;;12.10;99.90;;;;;;5036090;28;20239;-90
2021/05/12 12:02:12;;;;;;;3.77;1.60;;;12.20;99.90;;;;;;5034142;28;20264;-89
2021/05/12 12:04:52;;;;;;;4.60;1.77;;;12.30;99.90;;;;;;5035302;28;20240;-88
2021/05/12 12:07:25;;;;;;;4.07;1.73;;;12.20;99.90;;;;;;5035274;28;20216;-90
2021/05/12 12:10:02;;;;;;;2.90;1.30;;;12.30;99.90;;;;;;5035648;28;20311;-89
2021/05/12 12:12:33;;;;;;;5.37;1.50;;;12.40;99.90;;;;;;5035933;28;20645;-89
2021/05/12 12:15:10;;;;;;;4.50;1.33;;;12.30;99.90;;;;;;5018262;28;20240;-90
2021/05/12 12:17:41;;;;;;;2.27;1.40;;;12.30;99.90;;;;;;5035474;28;20627;-89
2021/05/12 12:20:13;;;;;;;3.00;1.23;;;12.20;99.90;;;;;;5034909;28;20263;-90
2021/05/12 12:22:51;;;;;;;2.43;1.23;;;12.10;99.90;;;;;;5035513;28;20288;-90
2021/05/12 12:25:29;;;;;;;3.40;1.30;;;12.10;99.90;;;;;;5035173;28;20243;-90
2021/05/12 12:28:02;;;;;;;3.30;1.50;;;12.10;99.90;;;;;;5035279;28;20247;-89
2021/05/12 12:30:33;;;;;;;3.77;1.57;;;12.10;99.90;;;;;;5017947;28;20286;-90
2021/05/12 12:33:04;;;;;;;2.13;1.40;;;12.10;99.90;;;;;;5034862;28;20204;-90
2021/05/12 12:35:35;;;;;;;4.23;1.37;;;12.20;99.90;;;;;;5035902;28;20212;-90
2021/05/12 12:38:17;;;;;;;2.27;1.47;;;12.20;99.90;;;;;;5035520;28;20251;-90
2021/05/12 12:40:48;;;;;;;3.27;1.40;;;12.20;99.90;;;;;;5034504;28;20375;-90
2021/05/12 12:43:19;;;;;;;3.97;1.40;;;12.20;99.90;;;;;;5035512;28;20654;-90
2021/05/12 12:45:50;;;;;;;3.03;1.70;;;12.10;99.90;;;;;;5018566;28;20296;-90
2021/05/12 12:48:26;;;;;;;3.87;1.23;;;12.10;99.90;;;;;;5051182;28;20304;-91
2021/05/12 12:50:57;;;;;;;4.33;1.53;;;12.10;99.90;;;;;;5048936;28;20215;-89
2021/05/12 12:53:30;;;;;;;2.67;1.20;;;12.00;99.90;;;;;;5044197;28;20205;-90
2021/05/12 12:56:11;;;;;;;2.47;1.30;;;11.90;99.90;;;;;;5043748;28;20232;-90
2021/05/12 12:58:41;;;;;;;3.83;1.60;;;11.90;99.90;;;;;;5053368;28;20322;-90
2021/05/12 13:01:12;;;;;;;3.83;1.50;;;12.00;99.90;;;;;;5014960;28;20232;-89
2021/05/12 13:03:43;;;;;;;4.37;1.60;;;12.00;99.90;;;;;;5015527;28;20249;-89
2021/05/12 13:06:14;;;;;;;3.57;1.67;;;12.00;99.90;;;;;;5019960;28;20205;-90
2021/05/12 13:08:46;;;;;;;3.10;1.20;;;12.10;99.90;;;;;;5016187;28;20234;-90
2021/05/12 13:11:17;;;;;;;3.53;1.77;;;12.10;99.90;;;;;;5014553;28;20276;-90
2021/05/12 13:13:50;;;;;;;3.77;1.57;;;12.10;99.90;;;;;;5015046;28;20209;-89
2021/05/12 13:16:24;;;;;;;4.83;1.40;;;12.20;99.90;;;;;;5015323;28;20244;-89
2021/05/12 13:18:57;;;;;;;3.63;1.53;;;12.20;99.90;;;;;;5014832;28;20251;-89
2021/05/12 13:21:31;;;;;;;1.67;1.40;;;12.20;99.90;;;;;;5014578;28;20236;-89
2021/05/12 13:24:06;;;;;;;2.90;1.30;;;12.20;99.90;;;;;;5015894;28;20209;-89